.
WxDataArchive / Data Records for 2010-03-30
2010-03-29 March 2010 2010-03-31

Data Records for Tuesday, 30 March 2010

Time	Temp	Chill	HIndex	Humid	Dewpt	 Wind 	HiWind	WindDir	Rain 	Barom 
-----	----	-----	------	-----	-----	------	------	-------	-----	----- 
00:00	37.9	37.9	37.9	82	32.9	0	0	---	0.00	30.022 
00:05	37.8	37.8	37.8	83	33.1	0	0	---	0.00	30.022 
00:10	37.5	37.5	37.5	84	33.1	0	0	---	0.00	30.022 
00:15	37.3	37.3	37.3	84	32.9	0	1	112	0.00	30.020 
00:20	37.5	37.5	37.5	85	33.4	0	2	112	0.00	30.020 
00:25	37.8	37.8	37.8	86	34.0	1	2	112	0.00	30.020 
00:30	37.9	37.9	37.9	85	33.8	0	2	112	0.00	30.018 
00:35	38.0	38.0	38.0	85	33.9	0	3	112	0.00	30.018 
00:40	38.0	38.0	38.0	85	33.9	0	1	112	0.00	30.018 
00:45	38.2	38.2	38.2	85	34.1	0	1	112	0.00	30.019 
00:50	38.2	38.2	38.2	86	34.4	0	1	112	0.00	30.019 
00:55	38.2	38.2	38.2	86	34.4	0	1	112	0.00	30.019 
01:00	38.0	38.0	38.0	86	34.2	0	0	---	0.00	30.022 
01:05	38.0	38.0	38.0	86	34.2	0	0	---	0.00	30.022 
01:10	38.0	38.0	38.0	86	34.2	0	0	---	0.00	30.022 
01:15	37.9	37.9	37.9	86	34.1	0	0	---	0.00	30.017 
01:20	37.8	37.8	37.8	86	34.0	0	0	---	0.00	30.017 
01:25	37.6	37.6	37.6	86	33.8	0	0	---	0.00	30.017 
01:30	37.3	37.3	37.3	86	33.5	0	0	---	0.00	30.018 
01:35	37.2	37.2	37.2	86	33.4	0	0	---	0.00	30.018 
01:40	36.9	36.9	36.9	86	33.1	0	0	---	0.00	30.018 
01:45	36.8	36.8	36.8	86	33.0	0	0	---	0.00	30.018 
01:50	36.5	36.5	36.5	86	32.7	0	0	---	0.00	30.018 
01:55	36.2	36.2	36.2	87	32.7	0	0	---	0.00	30.018 
02:00	35.9	35.9	35.9	87	32.4	0	0	---	0.00	30.019 
02:05	35.8	35.8	35.8	87	32.3	0	0	---	0.00	30.019 
02:10	35.6	35.6	35.6	88	32.4	0	0	---	0.00	30.019 
02:15	35.3	35.3	35.3	88	32.1	0	0	---	0.00	30.019 
02:20	35.2	35.2	35.2	88	32.0	0	0	---	0.00	30.019 
02:25	34.9	34.9	34.9	88	31.7	0	0	---	0.00	30.019 
02:30	34.7	34.7	34.7	88	31.5	0	0	---	0.00	30.017 
02:35	34.4	34.4	34.4	89	31.5	0	0	---	0.00	30.017 
02:40	34.3	34.3	34.3	89	31.4	0	0	---	0.00	30.017 
02:45	34.1	34.1	34.1	89	31.2	0	0	---	0.00	30.018 
02:50	33.8	33.8	33.8	89	30.9	0	0	---	0.00	30.018 
02:55	33.7	33.7	33.7	89	30.8	0	0	---	0.00	30.018 
03:00	33.5	33.5	33.5	90	30.9	0	0	---	0.00	30.018 
03:05	33.4	33.4	33.4	90	30.8	0	0	---	0.00	30.018 
03:10	33.2	33.2	33.2	90	30.6	0	0	---	0.00	30.018 
03:15	33.1	33.1	33.1	90	30.5	0	0	---	0.00	30.018 
03:20	32.8	32.8	32.8	90	30.2	0	0	---	0.00	30.018 
03:25	32.8	32.8	32.8	91	30.5	0	0	---	0.00	30.018 
03:30	32.7	32.7	32.7	91	30.4	0	0	---	0.00	30.018 
03:35	32.7	32.7	32.7	91	30.4	0	0	---	0.00	30.018 
03:40	32.5	32.5	32.5	91	30.2	0	0	---	0.00	30.018 
03:45	32.4	32.4	32.4	91	30.1	0	0	---	0.00	30.020 
03:50	32.1	32.1	32.1	91	29.8	0	0	---	0.00	30.020 
03:55	31.9	31.9	31.9	91	29.6	0	0	---	0.00	30.020 
04:00	31.8	31.8	31.8	91	29.5	0	0	---	0.00	30.021 
04:05	31.6	31.6	31.6	91	29.3	0	0	---	0.00	30.021 
04:10	31.6	31.6	31.6	91	29.3	0	0	---	0.00	30.021 
04:15	31.5	31.5	31.5	92	29.4	0	0	---	0.00	30.019 
04:20	31.3	31.3	31.3	92	29.3	0	0	---	0.00	30.019 
04:25	31.2	31.2	31.2	92	29.2	0	0	---	0.00	30.019 
04:30	30.9	30.9	30.9	92	28.9	0	0	---	0.00	30.020 
04:35	30.7	30.7	30.7	92	28.7	0	0	---	0.00	30.020 
04:40	30.7	30.7	30.7	92	28.7	0	0	---	0.00	30.020 
04:45	30.6	30.6	30.6	92	28.6	0	0	---	0.00	30.018 
04:50	30.6	30.6	30.6	92	28.6	0	0	---	0.00	30.018 
04:55	30.4	30.4	30.4	92	28.4	0	0	---	0.00	30.018 
05:00	30.3	30.3	30.3	92	28.3	0	0	---	0.00	30.021 
05:05	30.3	30.3	30.3	92	28.3	0	0	---	0.00	30.021 
05:10	30.1	30.1	30.1	92	28.1	0	0	---	0.00	30.021 
05:15	30.0	30.0	30.0	92	28.0	0	0	---	0.00	30.019 
05:20	29.8	29.8	29.8	92	27.8	0	0	---	0.00	30.019 
05:25	29.7	29.7	29.7	92	27.7	0	0	---	0.00	30.019 
05:30	29.7	29.7	29.7	92	27.7	0	0	---	0.00	30.018 
05:35	29.5	29.5	29.5	92	27.5	0	0	---	0.00	30.018 
05:40	29.5	29.5	29.5	92	27.5	0	0	---	0.00	30.018 
05:45	29.4	29.4	29.4	92	27.4	0	0	---	0.00	30.023 
05:50	29.4	29.4	29.4	92	27.4	0	0	---	0.00	30.023 
05:55	29.4	29.4	29.4	93	27.6	0	0	---	0.00	30.023 
06:00	29.4	29.4	29.4	93	27.6	0	0	---	0.00	30.024 
06:05	29.3	29.3	29.3	93	27.5	0	0	---	0.00	30.024 
06:10	29.3	29.3	29.3	93	27.5	0	0	---	0.00	30.024 
06:15	29.1	29.1	29.1	93	27.3	0	0	---	0.00	30.034 
06:20	29.1	29.1	29.1	93	27.3	0	0	---	0.00	30.034 
06:25	29.1	29.1	29.1	93	27.3	0	0	---	0.00	30.034 
06:30	29.0	29.0	29.0	93	27.2	0	0	---	0.00	30.041 
06:35	28.8	28.8	28.8	93	27.0	0	0	---	0.00	30.041 
06:40	28.8	28.8	28.8	93	27.0	0	0	---	0.00	30.041 
06:45	28.8	28.8	28.8	93	27.0	0	0	---	0.00	30.043 
06:50	28.7	28.7	28.7	93	26.9	0	0	---	0.00	30.043 
06:55	28.5	28.5	28.5	93	26.7	0	0	---	0.00	30.043 
07:00	28.5	28.5	28.5	93	26.7	0	0	---	0.00	30.044 
07:05	28.5	28.5	28.5	93	26.7	0	0	---	0.00	30.044 
07:10	28.4	28.4	28.4	93	26.6	0	0	---	0.00	30.044 
07:15	28.4	28.4	28.4	93	26.6	0	0	---	0.00	30.054 
07:20	28.4	28.4	28.4	93	26.6	0	0	---	0.00	30.054 
07:25	28.2	28.2	28.2	93	26.4	0	0	---	0.00	30.054 
07:30	28.2	28.2	28.2	93	26.4	0	0	---	0.00	30.058 
07:35	28.2	28.2	28.2	93	26.4	0	0	---	0.00	30.058 
07:40	28.4	28.4	28.4	93	26.6	0	0	---	0.00	30.058 
07:45	28.4	28.4	28.4	93	26.6	0	0	---	0.00	30.057 
07:50	28.4	28.4	28.4	94	26.9	0	0	---	0.00	30.057 
07:55	28.5	28.5	28.5	93	26.7	0	0	---	0.00	30.057 
08:00	28.5	28.5	28.5	94	27.0	0	0	---	0.00	30.059 
08:05	28.7	28.7	28.7	94	27.2	0	0	---	0.00	30.059 
08:10	29.1	29.1	29.1	94	27.6	0	0	---	0.00	30.059 
08:15	29.4	29.4	29.4	94	27.9	0	0	---	0.00	30.064 
08:20	29.8	29.8	29.8	94	28.3	0	0	---	0.00	30.064 
08:25	30.1	30.1	30.1	95	28.8	0	0	---	0.00	30.064 
08:30	30.4	30.4	30.4	94	28.9	0	0	---	0.00	30.075 
08:35	30.6	30.6	30.6	95	29.3	0	0	---	0.00	30.075 
08:40	30.9	30.9	30.9	95	29.6	0	0	---	0.00	30.075 
08:45	31.0	31.0	31.0	95	29.7	0	0	---	0.00	30.077 
08:50	31.2	31.2	31.2	95	29.9	0	0	---	0.00	30.077 
08:55	31.3	31.3	31.3	95	30.0	0	0	---	0.00	30.077 
09:00	31.6	31.6	31.6	95	30.3	0	0	---	0.00	30.082 
09:05	31.9	31.9	31.9	95	30.6	0	0	---	0.00	30.082 
09:10	32.4	32.4	32.4	95	31.1	0	0	---	0.00	30.082 
09:15	32.9	32.9	32.9	95	31.6	0	0	---	0.00	30.085 
09:20	33.7	33.7	33.7	96	32.7	0	1	112	0.00	30.085 
09:25	34.3	34.3	34.3	96	33.3	0	0	---	0.00	30.085 
09:30	35.0	35.0	35.0	96	34.0	0	0	---	0.00	30.092 
09:35	35.9	35.9	35.9	96	34.9	0	1	112	0.00	30.092 
09:40	36.5	36.5	36.5	96	35.5	0	0	---	0.00	30.092 
09:45	37.0	37.0	37.0	96	36.0	0	1	22	0.00	30.090 
09:50	38.0	38.0	38.0	96	37.0	0	2	22	0.00	30.090 
09:55	38.9	38.9	38.9	96	37.9	0	1	22	0.00	30.090 
10:00	39.8	39.8	39.8	96	38.8	0	2	45	0.00	30.084 
10:05	40.3	40.3	40.3	94	38.7	0	2	45	0.00	30.084 
10:10	41.1	41.1	41.1	92	39.0	1	3	90	0.00	30.084 
10:15	41.6	41.6	41.6	89	38.6	1	4	90	0.00	30.082 
10:20	42.5	42.5	42.5	87	38.9	0	2	90	0.00	30.082 
10:25	43.2	43.2	43.2	84	38.7	1	3	90	0.00	30.082 
10:30	43.8	43.8	43.8	80	38.0	1	5	112	0.00	30.082 
10:35	44.3	44.3	44.3	77	37.6	2	4	112	0.00	30.082 
10:40	44.9	44.9	44.9	76	37.8	1	3	270	0.00	30.082 
10:45	45.2	45.2	45.2	76	38.1	1	3	90	0.00	30.086 
10:50	45.8	45.8	45.8	73	37.6	1	4	90	0.00	30.086 
10:55	46.2	46.2	46.2	69	36.6	1	5	90	0.00	30.086 
11:00	46.4	46.4	46.4	72	37.9	1	2	248	0.00	30.084 
11:05	46.8	46.8	46.8	70	37.5	1	3	248	0.00	30.084 
11:10	47.6	47.6	47.6	68	37.6	1	4	112	0.00	30.084 
11:15	47.7	47.7	47.7	66	36.9	1	2	68	0.00	30.081 
11:20	47.9	47.9	47.9	67	37.5	1	3	270	0.00	30.081 
11:25	48.2	48.2	48.2	67	37.8	1	3	90	0.00	30.081 
11:30	48.8	48.8	48.8	66	38.0	1	4	90	0.00	30.082 
11:35	49.1	49.1	49.1	66	38.2	1	4	112	0.00	30.082 
11:40	49.4	49.4	49.4	65	38.1	1	2	270	0.00	30.082 
11:45	49.5	49.5	49.5	64	37.8	0	3	270	0.00	30.083 
11:50	50.1	50.1	50.1	61	37.2	1	4	90	0.00	30.083 
11:55	50.1	50.1	50.1	62	37.6	1	5	248	0.00	30.083 
12:00	49.9	49.9	49.9	63	37.8	1	3	248	0.00	30.081 
12:05	50.2	50.2	50.2	62	37.7	1	3	248	0.00	30.081 
12:10	50.1	50.1	50.1	61	37.2	1	4	68	0.00	30.081 
12:15	50.4	50.4	50.4	62	37.9	1	3	68	0.00	30.080 
12:20	50.5	50.5	50.5	62	38.0	1	3	90	0.00	30.080 
12:25	51.0	51.0	51.0	64	39.3	1	3	292	0.00	30.080 
12:30	51.1	51.1	51.1	61	38.1	1	5	90	0.00	30.078 
12:35	51.0	51.0	51.0	63	38.9	1	3	248	0.00	30.078 
12:40	51.6	51.6	51.6	59	37.7	1	3	68	0.00	30.078 
12:45	52.2	52.2	52.2	62	39.6	1	3	90	0.00	30.064 
12:50	52.3	52.3	52.3	57	37.5	0	2	248	0.00	30.064 
12:55	52.5	52.5	52.5	59	38.6	1	3	338	0.00	30.064 
13:00	52.5	52.5	52.5	58	38.2	1	3	270	0.00	30.054 
13:05	52.8	52.8	52.8	58	38.4	1	3	90	0.00	30.054 
13:10	53.2	53.2	53.2	58	38.8	0	2	90	0.00	30.054 
13:15	53.5	53.5	53.5	58	39.1	1	3	90	0.00	30.039 
13:20	53.9	53.9	53.9	58	39.5	1	3	90	0.00	30.039 
13:25	53.9	53.9	53.9	58	39.5	1	3	90	0.00	30.039 
13:30	53.6	53.6	53.6	55	37.8	3	6	90	0.00	30.020 
13:35	53.3	53.3	53.3	55	37.5	1	5	112	0.00	30.020 
13:40	53.3	53.3	53.3	54	37.1	1	5	112	0.00	30.020 
13:45	53.8	53.8	53.8	59	39.8	1	3	45	0.00	30.016 
13:50	54.1	54.1	54.1	54	37.8	1	3	68	0.00	30.016 
13:55	54.2	54.2	54.2	57	39.3	1	3	292	0.00	30.016 
14:00	54.7	54.7	54.7	54	38.4	1	5	90	0.00	30.014 
14:05	54.4	54.4	54.4	53	37.6	2	6	90	0.00	30.014 
14:10	54.4	54.4	54.4	52	37.1	1	6	68	0.00	30.014 
14:15	55.0	55.0	55.0	53	38.2	1	5	90	0.00	30.015 
14:20	55.1	55.1	55.1	53	38.3	2	4	112	0.00	30.015 
14:25	55.1	55.1	55.1	50	36.8	1	4	112	0.00	30.015 
14:30	54.8	54.8	54.8	51	37.0	2	6	270	0.00	30.012 
14:35	55.0	55.0	55.0	49	36.2	2	5	45	0.00	30.012 
14:40	55.1	55.1	55.1	53	38.3	1	4	90	0.00	30.012 
14:45	55.3	55.3	55.3	52	38.0	1	5	90	0.00	30.007 
14:50	55.6	55.6	55.6	51	37.8	2	4	112	0.00	30.007 
14:55	55.9	55.9	55.9	49	37.0	2	4	112	0.00	30.007 
15:00	56.0	56.0	56.0	50	37.6	1	4	248	0.00	30.002 
15:05	56.0	56.0	56.0	50	37.6	1	4	292	0.00	30.002 
15:10	56.0	56.0	56.0	49	37.1	1	4	112	0.00	30.002 
15:15	56.3	56.3	56.3	51	38.4	1	3	248	0.00	30.000 
15:20	56.6	56.6	56.6	50	38.2	1	3	248	0.00	30.000 
15:25	57.0	57.0	57.0	50	38.5	1	3	338	0.00	30.000 
15:30	57.0	57.0	57.0	47	37.0	1	5	45	0.00	29.990 
15:35	57.0	57.0	57.0	49	38.0	1	4	270	0.00	29.990 
15:40	56.5	56.5	56.5	46	36.0	2	6	90	0.00	29.990 
15:45	56.5	56.5	56.5	49	37.6	0	3	90	0.00	29.982 
15:50	56.7	56.7	56.7	50	38.3	1	4	225	0.00	29.982 
15:55	56.9	56.9	56.9	48	37.4	1	4	112	0.00	29.982 
16:00	57.0	57.0	57.0	47	37.0	1	4	90	0.00	29.974 
16:05	56.9	56.9	56.9	48	37.4	0	3	270	0.00	29.974 
16:10	57.2	57.2	57.2	49	38.2	1	4	112	0.00	29.974 
16:15	57.0	57.0	57.0	47	37.0	1	5	90	0.00	29.971 
16:20	57.3	57.3	57.3	49	38.3	1	3	158	0.00	29.971 
16:25	57.6	57.6	57.6	47	37.5	1	4	248	0.00	29.971 
16:30	58.0	58.0	58.0	46	37.3	0	2	248	0.00	29.971 
16:35	58.1	58.1	58.1	48	38.5	1	4	68	0.00	29.971 
16:40	58.0	58.0	58.0	46	37.3	1	4	68	0.00	29.971 
16:45	57.8	57.8	57.8	49	38.8	1	4	135	0.00	29.968 
16:50	57.8	57.8	57.8	47	37.7	0	3	248	0.00	29.968 
16:55	58.1	58.1	58.1	43	35.7	1	6	248	0.00	29.968 
17:00	58.1	58.1	58.1	44	36.3	1	2	248	0.00	29.969 
17:05	58.0	58.0	58.0	45	36.8	1	4	248	0.00	29.969 
17:10	57.8	57.8	57.8	46	37.2	1	3	270	0.00	29.969 
17:15	58.1	58.1	58.1	46	37.4	1	4	248	0.00	29.969 
17:20	58.0	58.0	58.0	44	36.2	1	3	90	0.00	29.969 
17:25	57.6	57.6	57.6	48	38.1	2	6	22	0.00	29.969 
17:30	57.6	57.6	57.6	47	37.5	1	2	0	0.00	29.961 
17:35	57.6	57.6	57.6	46	37.0	1	4	225	0.00	29.961 
17:40	57.6	57.6	57.6	47	37.5	1	4	90	0.00	29.961 
17:45	57.6	57.6	57.6	45	36.4	1	4	112	0.00	29.955 
17:50	58.0	58.0	58.0	45	36.8	1	3	270	0.00	29.955 
17:55	58.1	58.1	58.1	45	36.9	2	6	248	0.00	29.955 
18:00	57.8	57.8	57.8	44	36.0	0	2	248	0.00	29.956 
18:05	57.8	57.8	57.8	47	37.7	1	5	90	0.00	29.956 
18:10	57.8	57.8	57.8	42	34.9	2	5	248	0.00	29.956 
18:15	57.6	57.6	57.6	44	35.8	1	3	248	0.00	29.955 
18:20	57.6	57.6	57.6	45	36.4	1	3	248	0.00	29.955 
18:25	57.3	57.3	57.3	45	36.1	1	3	248	0.00	29.955 
18:30	57.0	57.0	57.0	47	37.0	1	3	90	0.00	29.944 
18:35	56.7	56.7	56.7	46	36.2	1	3	270	0.00	29.944 
18:40	56.6	56.6	56.6	46	36.1	1	3	225	0.00	29.944 
18:45	56.5	56.5	56.5	46	36.0	1	4	248	0.00	29.939 
18:50	56.3	56.3	56.3	47	36.3	1	3	248	0.00	29.939 
18:55	56.0	56.0	56.0	47	36.1	0	1	248	0.00	29.939 
19:00	56.0	56.0	56.0	48	36.6	0	3	248	0.00	29.938 
19:05	55.9	55.9	55.9	47	36.0	1	4	248	0.00	29.938 
19:10	55.9	55.9	55.9	49	37.0	0	2	248	0.00	29.938 
19:15	55.6	55.6	55.6	50	37.3	0	2	248	0.00	29.942 
19:20	55.3	55.3	55.3	50	37.0	0	2	225	0.00	29.942 
19:25	55.1	55.1	55.1	49	36.3	1	4	68	0.00	29.942 
19:30	55.0	55.0	55.0	50	36.7	0	1	68	0.00	29.941 
19:35	54.7	54.7	54.7	50	36.4	0	2	68	0.00	29.941 
19:40	54.4	54.4	54.4	52	37.1	0	1	68	0.00	29.941 
19:45	53.9	53.9	53.9	53	37.2	0	1	68	0.00	29.945 
19:50	53.6	53.6	53.6	53	36.9	0	1	68	0.00	29.945 
19:55	53.2	53.2	53.2	54	37.0	0	0	---	0.00	29.945 
20:00	52.9	52.9	52.9	54	36.7	0	0	---	0.00	29.949 
20:05	52.5	52.5	52.5	55	36.8	0	0	---	0.00	29.949 
20:10	52.2	52.2	52.2	55	36.5	0	1	68	0.00	29.949 
20:15	52.0	52.0	52.0	56	36.8	0	0	---	0.00	29.942 
20:20	51.6	51.6	51.6	56	36.4	0	0	---	0.00	29.942 
20:25	51.3	51.3	51.3	58	37.0	0	0	---	0.00	29.942 
20:30	50.8	50.8	50.8	58	36.6	0	0	---	0.00	29.943 
20:35	50.5	50.5	50.5	59	36.7	0	0	---	0.00	29.943 
20:40	50.1	50.1	50.1	59	36.3	0	0	---	0.00	29.943 
20:45	49.6	49.6	49.6	61	36.7	0	0	---	0.00	29.944 
20:50	49.1	49.1	49.1	62	36.6	0	0	---	0.00	29.944 
20:55	48.6	48.6	48.6	63	36.6	0	0	---	0.00	29.944 
21:00	48.2	48.2	48.2	64	36.6	0	0	---	0.00	29.947 
21:05	47.9	47.9	47.9	65	36.7	0	0	---	0.00	29.947 
21:10	47.4	47.4	47.4	67	37.0	0	1	68	0.00	29.947 
21:15	47.1	47.1	47.1	68	37.1	0	0	---	0.00	29.942 
21:20	46.7	46.7	46.7	68	36.7	0	0	---	0.00	29.942 
21:25	46.4	46.4	46.4	69	36.8	0	0	---	0.00	29.942 
21:30	46.1	46.1	46.1	69	36.5	0	0	---	0.00	29.946 
21:35	45.8	45.8	45.8	70	36.6	0	0	---	0.00	29.946 
21:40	45.5	45.5	45.5	71	36.7	0	0	---	0.00	29.946 
21:45	45.1	45.1	45.1	72	36.6	0	0	---	0.00	29.957 
21:50	44.8	44.8	44.8	72	36.3	0	0	---	0.00	29.957 
21:55	44.5	44.5	44.5	73	36.4	0	0	---	0.00	29.957 
22:00	44.2	44.2	44.2	74	36.4	0	0	---	0.00	29.964 
22:05	43.9	43.9	43.9	75	36.5	0	0	---	0.00	29.964 
22:10	43.6	43.6	43.6	75	36.2	0	0	---	0.00	29.964 
22:15	43.3	43.3	43.3	76	36.3	0	0	---	0.00	29.960 
22:20	43.1	43.1	43.1	77	36.4	0	0	---	0.00	29.960 
22:25	42.8	42.8	42.8	77	36.1	0	0	---	0.00	29.960 
22:30	42.5	42.5	42.5	78	36.1	0	0	---	0.00	29.960 
22:35	42.2	42.2	42.2	78	35.8	0	0	---	0.00	29.960 
22:40	42.1	42.1	42.1	80	36.4	0	0	---	0.00	29.960 
22:45	41.9	41.9	41.9	80	36.2	0	0	---	0.00	29.960 
22:50	41.8	41.8	41.8	81	36.4	0	0	---	0.00	29.960 
22:55	41.8	41.8	41.8	81	36.4	0	0	---	0.00	29.960 
23:00	41.6	41.6	41.6	81	36.2	0	0	---	0.00	29.955 
23:05	41.3	41.3	41.3	81	35.9	0	0	---	0.00	29.955 
23:10	41.2	41.2	41.2	81	35.8	0	0	---	0.00	29.955 
23:15	41.1	41.1	41.1	81	35.7	0	0	---	0.00	29.947 
23:20	40.9	40.9	40.9	82	35.8	0	0	---	0.00	29.947 
23:25	40.8	40.8	40.8	83	36.0	0	0	---	0.00	29.947 
23:30	40.6	40.6	40.6	83	35.8	0	0	---	0.00	29.938 
23:35	40.5	40.5	40.5	83	35.8	0	0	---	0.00	29.938 
23:40	40.3	40.3	40.3	84	35.9	0	0	---	0.00	29.938 
23:45	40.1	40.1	40.1	84	35.7	0	0	---	0.00	29.937 
23:50	40.1	40.1	40.1	84	35.7	0	0	---	0.00	29.937 
23:55	39.9	39.9	39.9	85	35.8	0	0	---	0.00	29.937 

CoCoRaHS
IN-AL-39
A2 Web Hosting
Creative Commons License
GoDaddy
search engine by freefind advanced

loaded 2018-11-15 14:01:32 • last modified 2010-11-18 10:43:29
Privacy PolicyDisclaimer
• wx.awcolley.com is powered by PmWiki v.2002016 •
• all content (unless otherwise noted) © 2018 A W Colley